Date,TemperatureHighF,TemperatureAvgF,TemperatureLowF,DewpointHighF,DewpointAvgF,DewpointLowF,HumidityHigh,HumidityAvg,HumidityLow,PressureMaxIn,PressureMinIn,WindSpeedMaxMPH,WindSpeedAvgMPH,GustSpeedMaxMPH,PrecipitationSumIn
2013-1-3,43.5,43.3,43.5,43.0,42.5,-99.9,98,98,98,30.35,30.24,5,5,5,0.00
2013-1-9,54.5,54.1,53.8,53.3,52.7,50.1,97,95,85,29.94,29.91,5,3,8,0.08
2013-1-10,65.5,60.1,54.0,59.9,57.2,53.1,98,90,81,29.92,29.56,18,5,26,0.12
2013-1-11,66.9,65.4,64.4,63.3,60.1,59.7,88,83,82,29.59,29.57,10,9,16,0.07
2013-1-12,69.6,67.4,65.3,66.9,63.4,59.4,96,87,74,29.88,29.43,19,9,25,0.80
2013-1-13,70.5,57.8,36.5,64.1,53.3,33.0,95,85,73,30.20,29.84,25,12,28,0.77
2013-1-14,37.4,32.3,29.3,34.7,28.7,25.4,90,86,79,30.35,30.19,18,9,24,0.00
2013-1-15,35.2,33.6,31.1,33.5,31.6,28.5,94,92,90,30.22,29.98,13,7,17,0.56
2013-1-16,36.5,35.1,33.8,34.8,33.4,32.0,94,93,92,30.12,29.98,12,4,14,0.44
2013-1-17,46.2,37.8,33.1,35.5,30.8,25.9,94,76,63,30.42,30.02,26,10,36,0.02
2013-1-18,54.1,36.1,24.6,33.0,26.6,16.3,92,72,24,30.56,30.37,8,2,10,0.00
2013-1-19,56.8,41.0,24.6,36.1,29.0,22.0,93,66,36,30.39,30.17,20,6,24,0.00
2013-1-20,59.0,40.5,27.0,40.2,28.9,22.6,95,68,29,30.25,30.16,11,2,15,0.02
2013-1-21,42.8,31.9,23.0,25.2,16.8,10.5,87,57,29,30.30,30.15,15,5,21,0.00
2013-1-22,35.6,27.3,20.3,15.9,8.2,1.4,80,46,24,30.42,30.27,10,4,15,0.00
2013-1-23,54.9,39.5,28.6,35.7,23.1,10.1,84,53,36,30.35,30.14,13,4,17,0.00
2013-1-24,38.7,32.9,28.4,34.6,15.7,3.3,92,52,25,30.45,30.19,18,8,27,0.00
2013-1-25,46.0,37.4,31.5,41.3,32.1,10.7,97,82,41,30.28,30.03,20,5,27,0.53
2013-1-26,53.4,37.3,29.5,37.7,31.1,26.5,95,80,44,30.34,30.24,7,2,9,0.00
2013-1-27,51.6,42.6,27.7,41.9,35.1,24.3,93,76,61,30.35,30.23,16,6,22,0.00
2013-1-28,60.8,54.4,43.5,52.3,46.2,36.1,85,74,62,30.27,30.14,17,8,22,0.00
2013-1-29,69.8,62.2,52.9,62.1,57.6,49.7,93,85,75,30.15,29.67,24,11,32,0.00
2013-1-30,72.1,53.2,36.0,62.0,46.7,21.5,96,79,54,29.93,29.51,33,16,43,1.62
2013-1-31,48.2,38.9,31.8,35.1,23.9,19.0,88,56,37,30.21,29.93,30,13,36,0.01
2013-2-1,33.1,25.1,17.6,28.9,12.3,1.7,88,59,43,30.48,30.21,23,7,34,0.00
2013-2-2,48.2,32.7,20.3,32.8,24.0,13.7,85,71,52,30.32,30.06,16,4,21,0.05
2013-2-3,51.6,33.2,26.1,28.6,25.8,21.6,89,76,38,30.17,30.01,21,3,24,0.00
2013-2-4,55.8,40.9,25.0,34.4,26.4,18.9,86,60,24,30.13,29.93,16,5,20,0.00
2013-2-5,65.7,50.2,34.3,43.2,37.8,30.9,89,64,36,30.06,29.93,12,4,17,0.00
2013-2-6,63.1,45.1,28.8,41.5,33.1,26.2,91,66,35,30.22,30.06,7,2,10,0.00
2013-2-7,61.5,51.0,41.7,47.4,41.5,31.6,92,71,52,30.11,29.92,14,4,18,0.00
2013-2-8,51.3,46.5,35.2,47.0,40.4,26.8,89,79,66,30.00,29.89,14,6,21,0.13
2013-2-9,57.2,43.1,34.0,35.3,29.3,25.9,75,60,35,30.04,29.84,16,6,26,0.00
2013-2-10,59.4,53.5,46.9,56.2,42.5,29.4,93,69,44,29.85,29.57,27,10,34,0.72
2013-2-11,59.7,50.7,40.1,56.0,39.3,23.6,89,67,33,29.87,29.63,12,5,16,0.00
2013-2-12,52.9,44.2,35.1,40.1,34.5,30.3,89,71,43,29.87,29.50,11,4,14,0.06
2013-2-13,45.0,41.3,36.7,41.4,37.4,31.7,94,86,76,29.72,29.40,15,6,20,0.12
2013-2-14,61.2,42.7,27.5,39.8,31.5,23.9,91,69,27,29.76,29.67,15,4,19,0.00
2013-2-15,50.9,39.5,28.9,38.9,28.8,18.5,89,67,42,29.86,29.73,15,5,19,0.00
2013-2-16,37.9,30.0,16.3,19.5,13.2,3.8,72,51,27,29.91,29.81,21,6,27,0.00
2013-2-17,48.7,32.5,13.1,24.0,13.2,6.7,76,49,22,29.99,29.87,13,4,17,0.00
2013-2-18,61.5,48.8,28.8,42.9,29.2,16.9,88,48,34,29.91,29.57,28,14,42,0.24
2013-2-19,50.0,42.4,24.6,44.5,26.9,9.3,90,59,22,29.93,29.59,25,12,31,0.04
2013-2-20,37.4,29.6,22.1,19.6,15.0,10.5,83,55,40,30.02,29.91,9,3,14,0.00
2013-2-21,52.0,38.9,27.7,45.5,25.4,13.4,93,61,26,29.93,29.57,12,5,16,0.66
2013-2-22,59.2,52.5,48.0,47.9,46.1,44.5,92,80,61,29.75,29.57,18,8,24,0.01
2013-2-23,54.7,44.1,30.9,45.3,34.9,27.8,88,72,44,29.72,29.59,9,1,12,0.00
2013-2-24,55.8,40.0,25.3,35.4,25.2,20.2,89,60,26,29.82,29.69,8,1,14,0.00
2013-2-25,64.4,49.2,32.5,46.0,31.9,22.1,78,53,25,29.92,29.43,16,5,25,0.01
2013-2-26,53.4,46.9,40.8,48.5,40.9,33.2,91,80,65,30.00,29.66,26,13,35,0.30
2013-2-27,43.5,40.4,37.8,34.6,32.0,29.9,81,72,63,30.17,30.00,14,7,21,0.00
2013-2-28,38.8,36.9,34.9,31.9,26.6,23.0,77,66,56,30.31,30.12,14,5,20,0.00
2013-3-1,37.4,35.0,32.9,30.5,29.1,26.1,90,79,68,30.31,30.25,9,2,14,0.01
2013-3-2,35.2,32.2,29.5,30.5,27.5,23.3,90,83,75,30.40,30.27,16,5,21,0.06
2013-3-3,43.5,32.2,25.0,23.6,16.7,7.6,80,56,24,30.41,30.32,14,4,21,0.00
2013-3-4,58.5,44.2,27.0,36.4,25.4,19.3,77,50,30,30.38,30.11,18,5,26,0.00
2013-3-5,57.9,48.1,33.3,55.4,40.6,16.4,94,76,47,30.28,29.93,34,14,46,0.48
2013-3-6,42.8,35.1,25.9,29.1,23.6,17.8,81,63,51,30.54,30.27,26,11,32,0.00
2013-3-7,45.3,34.3,25.5,30.6,25.6,20.5,85,71,55,30.63,30.52,10,2,17,0.00
2013-3-8,59.5,39.9,23.2,30.5,25.0,19.1,88,61,23,30.64,30.49,9,1,14,0.00
2013-3-9,65.8,51.3,32.7,37.4,31.5,25.2,83,51,23,30.50,30.31,14,2,20,0.00
2013-3-10,71.2,63.8,55.4,51.4,39.3,33.1,63,41,33,30.32,30.03,29,14,40,0.05
2013-3-11,63.0,48.6,39.4,54.8,44.3,30.1,99,86,66,30.24,30.03,21,7,31,1.15
2013-3-12,55.2,44.0,34.5,34.3,29.8,25.1,78,59,33,30.41,30.23,14,3,24,0.00
2013-3-13,47.1,36.7,27.9,32.7,23.0,15.2,96,61,31,30.64,30.39,24,6,27,0.00
2013-3-14,52.2,32.6,19.8,37.4,20.7,14.4,96,65,22,30.68,30.47,9,0,9,0.00
2013-3-15,76.8,55.5,30.7,48.0,40.2,30.0,97,62,34,30.47,30.15,17,4,24,0.01
2013-3-16,78.3,67.2,57.7,53.3,49.3,43.7,67,53,38,30.18,30.07,18,7,25,0.00
2013-3-17,73.8,57.8,44.6,54.7,49.2,43.8,97,75,43,30.21,30.06,16,3,21,0.00
2013-3-18,64.2,59.5,46.0,60.4,55.4,41.8,99,87,71,30.25,29.94,25,9,30,1.09
2013-3-19,57.2,45.6,31.8,45.1,27.6,11.4,99,59,19,30.42,30.25,16,3,24,0.00
2013-3-20,55.8,42.8,29.5,36.5,26.7,14.2,96,57,25,30.42,30.25,27,7,30,0.00
2013-3-21,47.8,36.8,19.9,24.4,15.0,6.4,84,43,23,30.35,30.19,12,2,19,0.00
2013-3-22,50.0,41.9,33.6,41.1,28.0,19.0,91,58,42,30.28,30.20,7,0,9,0.02
2013-3-23,59.2,48.5,43.0,48.8,44.6,40.8,98,87,65,30.24,29.97,10,1,15,0.11
2013-3-24,60.1,49.0,36.9,54.7,44.3,24.7,99,85,61,30.01,29.67,34,12,41,0.57
2013-3-25,36.7,34.6,31.8,29.3,24.7,22.3,90,67,58,30.38,30.00,26,14,32,0.00
2013-3-26,38.8,34.8,30.7,30.1,28.1,23.8,94,77,58,30.59,30.38,14,4,17,0.06
2013-3-27,53.8,38.5,23.5,33.5,26.2,21.5,95,66,29,30.65,30.53,10,2,21,0.00
2013-3-28,62.2,44.8,28.6,37.6,31.4,26.9,94,65,30,30.63,30.51,8,0,17,0.00
2013-3-29,61.3,49.2,39.0,48.3,41.1,35.5,98,76,42,30.58,30.42,2,0,6,0.01
2013-3-30,65.8,53.5,46.9,55.3,49.2,44.7,99,87,51,30.45,30.20,4,0,10,0.27
2013-3-31,61.3,54.6,42.1,56.1,52.4,41.8,99,93,82,30.19,30.12,10,1,15,0.01
2013-4-1,65.1,52.5,42.3,53.0,42.0,31.1,99,72,36,30.39,30.17,13,2,20,0.01
2013-4-2,50.7,44.1,35.8,32.1,26.8,18.9,78,52,30,30.52,30.39,8,1,14,0.00
2013-4-3,54.5,47.9,39.2,29.9,21.8,17.1,60,37,24,30.50,30.40,16,6,21,0.00
2013-4-4,49.1,45.3,39.6,46.7,40.7,23.6,99,86,37,30.40,30.23,4,0,10,0.79
2013-4-5,67.8,53.0,41.9,46.5,40.3,26.9,99,69,27,30.37,30.25,11,2,22,0.01
2013-4-6,73.0,55.8,36.0,47.5,39.3,35.2,99,61,27,30.40,30.24,15,4,22,0.00
2013-4-7,77.0,60.5,46.9,54.7,46.2,39.5,82,60,41,30.35,30.26,21,5,27,0.05
2013-4-8,72.1,69.1,66.4,57.9,56.7,55.1,67,65,60,30.26,30.22,1,0,6,0.00
2013-4-9,80.8,69.1,53.6,63.7,58.6,51.6,97,70,51,30.40,30.24,18,3,24,0.00
2013-4-10,85.1,75.0,65.3,60.8,58.6,54.6,79,58,42,30.31,29.88,14,5,20,0.63
2013-4-11,74.8,65.6,51.3,62.9,58.3,51.0,99,80,55,29.87,29.63,28,9,28,1.19
2013-4-12,66.0,53.2,42.8,51.0,42.3,36.4,99,70,39,30.03,29.76,16,4,24,0.01
2013-4-13,73.6,54.1,38.1,46.4,40.6,34.2,99,66,25,30.16,30.03,6,2,9,0.00
2013-4-14,70.2,56.9,44.4,53.6,47.5,39.1,97,74,33,30.06,29.92,25,4,30,0.00
2013-4-15,79.7,67.8,55.2,61.0,57.3,53.3,96,71,48,30.08,29.93,13,6,20,0.00
2013-4-16,81.1,72.2,64.0,68.8,64.5,59.5,91,77,64,30.20,30.07,16,5,22,0.00
2013-4-17,86.2,74.1,61.9,70.5,65.1,61.3,99,76,50,30.21,30.03,15,5,22,0.00
2013-4-18,81.3,73.8,66.6,64.5,61.8,58.2,91,68,47,30.03,29.67,24,14,36,0.02
2013-4-19,70.3,48.1,34.3,66.6,41.4,32.4,98,79,53,30.19,29.67,20,10,26,0.41
2013-4-20,64.0,47.4,30.4,42.6,33.4,24.8,99,66,23,30.34,30.19,11,2,21,0.07
2013-4-21,70.2,52.6,34.3,45.9,39.1,33.5,99,66,33,30.41,30.26,7,2,14,0.00
2013-4-22,74.8,57.5,40.8,49.7,43.9,38.2,99,67,28,30.33,30.14,12,3,17,0.00
2013-4-23,74.7,62.7,46.6,55.9,50.7,44.2,99,67,48,30.21,30.03,20,7,28,0.00
2013-4-24,67.1,55.5,46.2,59.3,50.0,42.3,99,82,66,30.33,29.95,20,9,28,0.30
2013-4-25,67.6,51.6,35.1,44.0,37.2,26.2,99,64,24,30.42,30.31,9,1,15,0.05
2013-4-26,68.0,52.9,39.2,50.6,44.3,38.9,99,77,42,30.47,30.31,10,2,17,0.18
2013-4-27,62.1,56.1,50.9,60.3,55.2,50.6,99,97,93,30.36,30.00,4,1,13,0.58
2013-4-28,69.8,62.7,53.2,64.4,58.3,52.7,99,86,64,30.15,29.94,11,2,24,0.07
2013-4-29,77.7,62.7,52.2,59.0,55.2,50.2,99,80,41,30.09,29.96,4,0,11,0.05
2013-4-30,82.0,64.5,45.9,59.8,53.4,45.1,99,72,35,30.08,29.99,8,1,14,0.01
2013-5-1,78.6,66.9,55.0,63.1,58.2,53.9,99,76,49,30.19,30.08,14,2,18,0.00
2013-5-2,77.0,66.7,55.9,61.8,58.0,55.3,98,75,56,30.21,30.10,12,2,17,0.07
2013-5-3,75.0,65.7,46.9,58.6,56.1,46.7,99,72,53,30.11,29.91,23,8,36,0.17
2013-5-4,51.8,45.6,42.4,46.5,43.8,41.7,99,94,76,30.04,29.93,9,1,17,0.84
2013-5-5,63.1,52.2,45.1,52.2,47.7,44.0,99,86,58,29.97,29.84,10,1,17,0.01
2013-5-6,61.5,53.9,47.5,54.1,51.0,47.2,99,90,70,29.96,29.80,7,0,13,0.40
2013-5-7,73.8,57.3,43.2,58.1,51.4,42.6,99,83,52,30.05,29.95,8,1,11,0.01
2013-5-8,79.0,63.9,48.2,62.5,56.0,47.9,99,78,47,30.11,30.01,8,1,15,0.00
2013-5-9,81.9,68.0,51.6,63.9,57.9,51.3,99,74,43,30.15,30.03,14,3,19,0.00
2013-5-10,72.9,65.8,60.3,64.7,62.0,58.8,99,88,70,30.08,29.94,17,4,24,0.37
2013-5-11,71.8,62.8,51.6,63.4,58.0,51.3,99,86,60,30.09,29.96,15,3,21,0.00
2013-5-12,65.7,56.5,41.5,56.2,37.5,27.6,99,52,26,30.22,30.09,12,3,19,0.00
2013-5-13,71.2,54.6,35.1,47.6,39.7,33.1,99,65,25,30.32,30.18,14,2,17,0.00
2013-5-14,83.7,66.4,44.2,60.1,53.0,43.7,99,66,42,30.24,30.06,18,6,27,0.00
2013-5-15,84.7,67.7,54.3,60.1,55.9,48.4,97,68,31,30.17,30.04,15,2,15,0.00
2013-5-16,83.3,70.5,59.5,64.3,59.1,54.1,97,71,40,30.11,29.96,12,3,16,0.00
2013-5-17,70.9,65.7,60.6,69.4,63.9,57.6,99,94,81,30.11,30.01,7,1,11,0.26
2013-5-18,83.3,72.9,65.5,71.9,67.5,65.1,99,85,60,30.07,30.00,10,2,15,0.04
2013-5-19,86.7,75.0,65.8,75.4,68.8,64.1,99,83,58,30.07,29.99,15,4,22,0.05
2013-5-20,84.6,73.2,61.7,71.2,66.8,60.5,99,81,61,30.11,29.99,12,3,16,0.01
2013-5-21,85.1,73.3,64.2,72.9,67.0,61.7,99,82,60,30.07,29.90,34,2,48,0.12
2013-5-22,80.8,71.1,62.8,67.2,63.9,60.9,97,79,58,29.99,29.87,20,5,29,0.00
2013-5-23,78.6,68.0,56.7,67.4,58.9,54.4,99,75,48,30.14,29.95,18,5,25,0.00
2013-5-24,72.1,61.5,49.6,58.1,50.2,43.8,99,70,39,30.35,30.13,14,4,19,0.00
2013-5-25,83.3,62.5,43.3,54.4,46.9,36.8,99,65,21,30.39,30.21,3,0,9,0.00
2013-5-26,86.7,67.9,47.8,60.2,52.8,45.3,99,65,27,30.30,30.17,5,0,9,0.00
2013-5-27,85.8,71.7,54.3,62.9,58.9,53.5,99,68,42,30.22,30.09,18,5,25,0.00
2013-5-28,86.2,74.7,59.0,64.1,60.8,56.9,99,65,42,30.18,30.07,19,7,30,0.00
2013-5-29,87.6,77.7,65.5,67.6,63.7,59.3,91,63,44,30.20,30.08,16,5,23,0.00
2013-5-30,85.3,77.0,64.0,71.1,66.5,62.2,96,71,55,30.19,30.06,20,7,26,0.00
2013-5-31,84.6,77.5,68.4,71.2,68.1,65.3,92,73,60,30.14,29.98,19,6,26,0.00
2013-6-1,85.6,74.9,66.9,73.1,68.4,65.7,99,81,63,30.08,29.90,23,7,30,0.14
2013-6-2,79.2,71.5,64.9,70.0,66.7,64.4,99,86,65,30.00,29.94,4,0,11,0.14
2013-6-3,80.4,69.6,59.4,64.6,61.0,57.1,99,77,49,30.06,29.97,7,1,15,0.00
2013-6-4,86.0,68.2,53.6,64.9,60.8,52.8,99,80,42,30.09,30.00,2,0,2,0.00
2013-6-5,82.0,69.6,60.1,72.8,66.3,59.8,99,90,66,30.06,29.91,10,1,15,0.26
2013-6-6,83.8,71.9,64.6,72.2,67.8,64.3,99,88,59,29.91,29.80,10,2,13,0.04
2013-6-7,78.6,69.9,64.6,70.6,67.0,64.3,99,91,68,29.93,29.79,12,1,16,0.05
2013-6-8,82.6,69.2,61.7,67.7,61.0,54.7,99,78,41,30.08,29.92,11,1,11,0.01
2013-6-9,81.9,70.9,60.8,74.1,67.7,60.2,98,90,72,30.11,29.94,12,2,17,0.41
2013-6-10,86.0,75.6,68.7,70.6,67.8,63.8,97,79,53,30.01,29.90,21,6,26,0.18
2013-6-11,92.8,79.6,66.4,75.4,71.3,66.1,99,78,49,30.08,30.00,10,2,15,0.01
2013-6-12,93.6,82.3,71.1,76.3,72.3,67.7,98,74,47,30.12,29.98,12,3,17,0.00
2013-6-13,89.4,80.8,70.2,76.5,70.4,61.5,87,71,50,30.00,29.87,22,8,27,0.00
2013-6-14,84.0,72.8,59.4,64.1,58.4,54.9,95,64,39,30.08,29.98,12,3,21,0.00
2013-6-15,89.2,74.2,58.1,68.5,62.2,57.8,99,71,39,30.15,30.05,11,1,16,0.00
2013-6-16,90.9,76.4,65.1,72.2,68.0,64.6,99,77,50,30.14,30.02,16,3,25,0.13
2013-6-17,85.3,73.4,68.9,75.9,70.5,67.9,98,91,69,30.07,29.94,14,2,21,0.27
2013-6-18,82.6,72.9,67.6,70.8,68.1,63.3,99,86,55,30.02,29.88,10,2,14,0.46
2013-6-19,90.3,76.1,62.8,71.9,67.0,61.9,99,77,43,30.12,30.00,8,0,12,0.01
2013-6-20,90.1,75.1,64.6,71.3,67.6,61.3,99,80,47,30.23,30.11,11,1,21,0.13
2013-6-21,89.8,80.6,63.5,70.7,68.0,62.6,98,67,46,30.28,30.17,8,2,12,0.00
2013-6-22,89.8,78.6,65.1,71.1,67.1,62.7,99,71,43,30.26,30.11,12,2,12,0.00
2013-6-23,90.1,76.8,63.5,70.4,66.4,62.6,99,73,43,30.22,30.11,10,2,10,0.00
2013-6-24,88.0,75.5,66.4,73.9,70.4,66.1,99,86,52,30.23,30.12,11,1,11,0.00
2013-6-25,90.0,79.4,68.5,74.7,71.4,67.7,99,78,48,30.18,30.03,10,2,14,0.00
2013-6-26,91.4,81.3,68.7,75.5,71.0,67.3,99,73,47,30.08,29.91,16,6,23,0.00
2013-6-27,92.8,81.4,71.1,78.9,71.9,67.2,95,75,48,29.98,29.87,19,6,25,0.06
2013-6-28,87.3,77.7,67.6,75.3,70.0,65.0,99,79,49,29.91,29.74,16,3,24,0.12
2013-6-29,87.8,76.8,64.2,72.4,64.3,58.0,99,69,40,29.77,29.70,14,3,18,0.06
2013-6-30,85.1,72.2,59.4,67.6,63.1,59.1,99,75,47,29.86,29.74,13,1,17,0.00
2013-7-1,82.9,71.1,61.7,69.0,65.2,61.1,99,83,55,29.95,29.82,15,2,17,0.00
2013-7-2,82.9,71.2,61.5,66.9,63.6,60.8,99,79,51,30.09,29.94,12,2,13,0.00
2013-7-3,85.6,72.2,61.7,71.9,65.9,61.1,99,83,52,30.16,30.08,12,0,17,0.25
2013-7-4,70.2,68.5,66.9,69.6,68.2,66.7,99,99,96,30.16,30.07,8,1,11,0.72
2013-7-5,77.7,72.3,68.7,73.2,70.3,68.5,99,94,81,30.17,30.08,15,3,19,0.21
2013-7-6,76.5,70.5,66.2,71.7,68.9,65.9,99,94,84,30.18,30.11,8,1,14,0.15
2013-7-7,91.4,78.1,68.9,73.4,69.7,66.2,99,78,47,30.19,30.10,4,1,8,0.07
2013-7-8,92.1,79.1,68.5,75.3,71.6,68.3,99,80,49,30.23,30.13,7,1,12,0.01
2013-7-9,92.8,81.4,70.3,76.7,72.8,68.8,99,78,48,30.21,30.08,6,1,12,0.01
2013-7-10,93.4,81.1,71.1,78.1,73.4,69.3,98,80,55,30.11,29.93,18,3,27,0.17
2013-7-11,93.7,79.7,69.4,75.9,71.9,68.5,99,78,49,30.02,29.94,10,2,18,0.21
2013-7-29,67.8,66.1,64.8,61.8,61.1,60.2,85,84,81,29.96,29.93,3,0,4,0.00
2013-7-30,88.3,70.7,59.7,70.0,62.3,56.5,99,77,43,29.98,29.89,23,3,28,0.98
2013-7-31,87.1,74.6,68.0,73.0,67.4,63.3,99,79,60,30.07,29.75,10,3,11,19.80
2013-8-1,85.8,75.3,65.8,70.2,64.9,14.8,88,72,11,29.96,29.89,14,4,18,0.00
2013-8-2,90.9,74.4,60.1,67.2,61.4,14.9,88,67,11,29.99,29.92,6,1,9,0.00
2013-8-3,78.4,72.5,66.4,69.5,65.7,61.1,85,79,71,30.01,29.91,6,2,8,0.17
2013-8-4,86.2,76.1,65.5,70.5,62.9,15.1,85,67,11,30.03,29.96,10,3,16,0.00
2013-8-5,86.4,73.4,64.6,67.1,61.6,57.9,83,68,44,30.03,29.90,5,1,9,0.00
2013-8-6,82.2,75.1,67.8,71.8,67.6,61.7,85,77,68,29.93,29.85,10,3,14,0.27
2013-8-7,79.9,74.8,71.8,69.7,66.9,23.7,85,77,15,29.95,29.85,11,3,17,0.05
2013-8-8,86.0,74.7,69.8,73.0,66.7,63.3,82,76,64,29.95,29.86,19,3,27,0.01
2013-8-9,86.4,76.7,68.5,74.0,67.6,14.8,84,75,11,29.99,29.90,13,3,17,0.00
2013-8-10,91.0,77.4,68.0,72.8,67.5,23.0,85,73,15,30.06,29.97,11,3,18,0.00
2013-8-11,90.1,77.5,70.2,74.0,68.4,22.9,85,74,13,30.08,29.99,10,2,14,0.01
2013-8-12,83.7,75.7,68.9,71.9,67.5,22.9,84,76,14,30.03,29.87,9,3,12,0.07
2013-8-13,85.5,74.9,68.5,70.9,66.0,62.6,85,74,56,29.93,29.84,10,4,16,0.07
2013-8-14,79.0,69.8,57.9,63.7,57.6,52.5,84,66,48,30.00,29.91,16,6,19,0.00
2013-8-15,82.6,65.5,51.8,65.3,58.2,48.4,89,78,55,30.00,29.92,8,1,8,0.00
2013-8-16,78.8,70.3,62.4,64.1,61.1,57.4,85,73,58,30.03,29.96,10,2,14,0.00
2013-8-17,76.5,69.7,66.2,64.1,61.7,59.7,84,76,65,30.06,29.99,8,2,11,0.01
2013-8-18,79.9,71.2,64.6,66.0,62.5,59.2,85,74,59,30.08,30.00,6,2,9,0.00
2013-8-19,86.2,73.6,66.2,68.5,65.1,61.9,86,76,53,30.07,29.97,11,2,12,0.11
2013-8-20,89.6,76.1,68.2,72.4,66.6,62.8,85,73,49,30.07,29.97,10,2,13,0.01
2013-8-21,85.1,75.0,67.3,72.1,67.3,63.0,86,77,61,30.11,30.02,9,3,16,0.54
2013-8-22,95.0,78.4,65.5,71.7,67.2,61.9,88,70,45,30.10,29.96,6,2,9,0.01
2013-8-23,92.5,77.6,66.6,71.4,66.5,62.6,87,70,44,30.03,29.92,11,2,14,0.00
2013-8-24,91.4,78.1,66.7,69.2,66.0,62.8,87,69,43,30.13,30.00,10,2,14,0.00
2013-8-25,89.4,76.1,65.7,66.5,63.7,61.2,87,68,44,30.26,30.13,12,3,16,0.00
2013-8-26,90.5,73.9,60.1,64.6,61.1,56.5,88,67,36,30.24,30.08,6,2,9,0.00
2013-8-27,94.3,74.5,60.3,67.7,62.6,56.7,88,69,42,30.10,29.98,9,2,11,0.00
2013-8-28,73.6,66.1,64.9,67.1,61.9,61.0,87,86,80,30.00,29.91,1,0,2,18.41
2013-8-29,93.4,79.4,65.8,70.9,67.2,61.9,87,69,46,29.94,29.83,11,3,15,0.00
2013-8-30,94.8,81.1,70.5,72.4,69.3,65.8,85,69,45,29.94,29.78,9,2,19,18.41
2013-8-31,93.2,77.2,67.3,71.9,67.7,63.3,87,74,46,29.97,29.87,16,2,20,0.07
2013-9-1,84.2,74.5,69.6,68.0,65.7,63.0,87,75,54,29.96,29.86,12,4,19,0.02
2013-9-2,84.9,75.6,69.8,69.7,66.6,63.9,85,74,59,29.96,29.87,13,4,16,0.00
2013-9-3,88.2,74.9,62.6,69.0,63.0,57.7,89,69,43,30.05,29.91,10,3,17,0.00
2013-9-4,88.2,71.2,56.8,64.3,58.9,53.6,89,68,40,30.16,30.03,10,2,12,0.00
2013-9-5,87.3,69.7,54.0,64.1,58.0,50.8,89,69,41,30.19,30.12,10,2,14,0.00
2013-9-6,92.3,72.3,55.4,64.6,59.4,52.2,89,67,35,30.18,30.06,8,2,13,0.00
2013-9-7,94.1,74.6,57.6,67.3,61.1,54.0,89,66,39,30.12,29.98,9,2,15,0.00
2013-9-8,91.9,75.6,62.2,68.2,63.4,58.0,87,68,42,30.04,29.95,8,2,12,0.00
2013-9-9,93.2,77.9,66.9,69.3,65.4,62.5,86,68,42,30.10,30.00,9,2,17,0.00
2013-9-10,92.3,76.1,68.5,69.7,66.7,63.5,86,74,46,30.19,30.09,11,2,15,0.26
2013-9-11,93.0,77.4,66.6,71.4,66.9,62.9,89,72,45,30.23,30.10,9,2,14,0.01
2013-9-12,90.0,73.5,66.7,70.0,65.8,63.1,88,78,50,30.10,29.94,14,2,14,0.08
2013-9-13,79.3,70.4,59.2,65.6,56.5,49.0,86,63,39,30.03,29.95,15,5,15,0.00
2013-9-14,78.1,61.6,45.9,52.3,49.7,42.8,89,67,39,30.09,30.02,13,2,13,0.00
2013-9-15,86.2,66.2,48.2,60.5,53.9,45.4,90,68,36,30.14,30.07,13,3,17,0.00
2013-9-16,87.1,68.7,52.9,62.2,55.6,50.0,90,67,34,30.19,30.11,9,2,14,0.00
2013-9-17,89.4,72.2,59.0,64.4,60.3,55.1,88,69,43,30.20,30.08,7,2,12,0.00
2013-9-18,83.3,72.6,63.7,65.3,61.5,57.8,86,69,54,30.20,30.09,12,4,16,0.00
2013-9-19,87.8,74.0,61.5,66.1,61.9,57.6,88,68,45,30.17,30.03,10,3,14,0.00
2013-9-20,88.7,74.2,61.0,66.2,62.1,57.1,88,68,44,30.05,29.83,13,5,17,0.09
2013-9-21,76.5,66.3,52.9,66.4,57.7,49.7,89,75,47,29.89,29.76,13,6,21,1.04
2013-9-22,77.4,61.4,46.0,56.0,50.1,44.1,94,70,41,29.95,29.87,14,4,21,0.00
2013-9-23,85.5,64.2,45.7,59.8,53.1,43.8,93,71,41,30.02,29.93,8,2,12,0.00
2013-9-24,81.5,68.0,55.2,63.4,59.2,52.6,91,75,51,30.01,29.86,10,3,16,0.48
2013-9-25,77.5,68.6,61.0,65.3,62.1,57.7,90,80,66,29.89,29.83,9,2,11,0.14
2013-9-26,82.0,68.6,56.8,66.1,60.3,53.9,91,77,48,30.04,29.88,10,2,15,0.00
2013-9-27,87.8,67.4,51.4,62.3,55.9,49.5,93,70,35,30.14,30.04,6,1,9,0.00
2013-9-28,82.8,66.4,55.6,59.2,54.8,51.7,91,70,38,30.21,30.08,14,4,19,0.00
2013-9-29,74.1,63.8,53.6,58.8,54.9,50.4,90,74,53,30.13,30.02,14,4,17,0.01
2013-9-30,75.9,66.4,58.5,59.5,57.0,54.5,88,73,55,30.08,29.99,15,4,19,0.01
2013-10-1,85.3,69.9,57.0,65.0,60.2,53.7,90,73,49,30.13,30.03,12,3,21,0.00
2013-10-2,87.3,73.5,64.4,66.5,62.6,60.5,88,71,44,30.16,30.05,9,2,17,0.00
2013-10-3,87.6,73.8,63.9,66.0,61.2,57.9,88,67,42,30.12,30.02,11,3,16,0.00
2013-10-4,86.7,71.6,60.3,67.1,61.7,56.4,88,72,51,30.14,30.05,10,2,13,0.00
2013-10-5,88.5,75.7,62.4,67.5,63.2,58.8,89,67,45,30.09,29.94,14,6,21,0.00
2013-10-6,78.4,66.9,53.8,68.2,59.4,50.3,89,77,67,29.98,29.85,14,7,23,0.48
2013-10-7,68.4,56.4,45.1,52.5,47.2,43.4,95,74,48,30.11,29.94,12,4,16,0.15
2013-10-8,76.6,59.8,48.2,53.7,47.9,42.9,83,67,43,30.15,30.07,13,4,20,0.04
2013-10-9,83.7,65.1,51.3,59.1,53.5,47.4,89,69,42,30.19,30.10,10,2,13,0.01
2013-10-10,83.8,62.9,55.8,60.5,56.1,52.6,89,80,45,30.17,30.04,8,1,8,0.00
2013-10-11,82.8,67.9,49.6,60.9,54.6,48.0,94,66,40,30.11,30.01,7,2,10,0.00
2013-10-12,83.3,64.1,48.2,60.4,54.2,46.3,94,74,45,30.14,30.04,10,2,14,0.00
2013-10-13,82.0,68.4,57.2,63.1,57.7,53.7,90,71,45,30.25,30.13,12,3,17,0.00
2013-10-14,82.9,68.7,55.4,61.1,57.5,52.2,91,70,42,30.24,30.10,9,3,15,0.00
2013-10-15,74.7,67.3,59.2,59.2,57.2,55.6,89,71,56,30.13,30.01,12,5,18,0.00
2013-10-16,68.0,64.0,61.2,61.6,58.7,56.1,90,83,75,30.03,29.92,11,3,14,0.57
2013-10-17,65.8,57.9,47.8,57.7,52.7,45.9,93,83,59,30.02,29.91,10,3,15,0.05
2013-10-18,68.9,53.0,45.3,53.9,46.3,43.4,97,80,47,30.11,29.98,5,1,9,0.01
2013-10-19,60.8,49.8,36.5,52.0,44.6,33.6,94,83,65,30.09,29.92,15,4,21,0.00
2013-10-20,72.7,46.2,32.7,49.0,34.6,25.9,95,71,19,30.14,30.03,6,1,9,0.00
2013-10-21,72.0,51.8,31.8,47.1,39.6,30.0,95,68,30,30.11,29.99,13,2,17,0.00
2013-10-22,63.3,51.9,41.4,50.3,45.9,39.5,94,81,53,30.06,29.89,7,2,11,0.05
2013-10-23,55.0,45.2,35.6,43.0,36.2,31.0,94,72,45,30.12,29.88,21,6,28,0.00
2013-10-24,59.4,46.6,33.8,42.2,37.2,26.4,88,71,52,30.35,30.11,12,4,16,0.00
2013-10-25,55.0,37.0,23.9,31.8,25.3,20.1,88,66,32,30.49,30.34,10,2,17,0.00
2013-10-26,62.1,44.0,22.6,42.8,29.8,18.8,86,61,29,30.33,30.11,14,4,19,0.00
2013-10-27,67.8,57.8,49.5,54.4,48.3,41.1,80,71,59,30.13,29.91,8,2,10,0.00
2013-10-28,66.9,59.6,52.3,56.1,52.3,49.7,91,77,64,30.11,29.94,10,3,13,0.00
2013-10-29,75.6,62.0,49.3,58.3,54.0,47.6,94,77,52,30.15,30.02,10,3,14,0.00
2013-10-30,77.5,67.2,56.1,59.5,55.1,52.7,90,67,46,30.10,29.93,17,4,19,0.00
2013-10-31,70.9,67.4,63.5,62.8,57.9,54.1,84,72,65,29.93,29.60,32,14,44,0.45
2013-11-1,69.3,69.3,69.3,59.1,59.1,59.1,70,70,70,29.67,29.67,24,24,30,0.45
2013-11-2,69.3,69.0,51.6,59.1,58.8,40.4,70,70,65,29.93,29.67,24,24,30,14.37
2013-11-4,56.3,55.5,54.3,40.0,39.2,38.0,55,54,53,30.14,30.12,5,4,8,0.00
2013-11-5,68.9,55.9,41.7,44.7,40.1,35.4,82,57,38,30.19,30.04,13,4,17,0.00
2013-11-6,72.5,61.9,45.9,60.4,53.0,40.5,93,74,57,30.04,29.84,21,6,27,0.48
2013-11-7,55.9,44.7,29.8,54.0,34.5,26.2,93,70,34,30.13,29.89,22,8,25,0.11
2013-11-8,59.9,40.2,26.1,36.8,27.3,21.0,92,66,25,30.20,30.05,11,2,16,0.00
2013-11-9,61.2,44.7,27.9,41.2,34.0,24.0,89,69,37,30.11,29.99,13,2,16,0.00
2013-11-10,67.1,50.5,33.1,45.4,37.2,27.9,95,65,32,30.14,30.05,10,3,16,0.00
2013-11-11,74.5,48.5,27.9,40.6,28.8,16.3,91,57,12,30.12,29.95,5,1,7,0.00
2013-11-12,53.4,39.9,28.0,42.9,24.4,8.7,85,56,26,30.40,29.97,24,12,32,0.01
2013-11-13,47.8,31.4,19.9,23.2,16.8,10.2,83,59,24,30.48,30.24,10,2,17,0.00
2013-11-14,58.8,30.3,17.6,29.6,18.4,12.4,85,66,21,30.25,29.99,11,2,11,0.00
2013-11-15,59.0,46.5,31.3,49.1,39.6,21.6,98,78,42,30.02,29.88,8,1,9,0.08
2013-11-16,64.0,58.6,46.9,57.6,54.0,46.4,99,86,74,29.93,29.79,19,8,25,0.04
2013-11-17,70.7,65.5,61.0,65.3,60.3,55.5,91,83,75,29.79,29.58,22,12,34,0.31
2013-11-18,63.5,53.0,39.9,56.7,38.9,28.5,98,62,34,30.03,29.75,17,5,21,0.04
2013-11-19,51.1,43.9,36.9,30.3,27.6,23.5,72,53,36,30.08,29.97,17,7,22,0.00
2013-11-20,64.4,45.5,27.1,36.0,30.2,23.8,93,61,26,30.04,29.94,15,4,19,0.01
2013-11-21,65.3,54.5,36.7,52.1,45.8,31.7,88,73,60,30.10,29.99,17,5,21,0.08
2013-11-22,59.9,54.9,45.9,57.9,51.6,42.5,93,89,84,30.13,30.01,18,6,23,0.09
2013-11-23,45.9,40.5,26.4,42.5,30.0,13.3,89,67,33,30.32,30.10,22,11,28,0.00
2013-11-24,36.1,27.6,20.1,13.7,9.3,2.7,67,47,26,30.42,30.25,18,8,22,0.00
2013-11-25,42.1,33.7,25.0,32.5,19.7,8.3,89,59,26,30.25,29.95,8,3,10,0.22
2013-11-26,40.1,37.0,34.0,38.5,33.7,25.1,96,88,67,29.97,29.66,17,8,24,0.69
2013-11-27,34.5,27.8,14.9,26.4,13.5,5.2,76,56,35,30.16,29.76,22,11,34,0.00
2013-11-28,51.6,27.8,12.2,17.8,11.2,6.6,79,55,21,30.29,30.16,7,2,11,0.00
2013-11-29,53.6,37.2,18.0,28.6,20.2,12.6,84,54,27,30.38,30.27,7,2,10,0.00
2013-11-30,59.5,38.0,21.2,33.4,24.2,17.4,85,62,26,30.28,29.72,17,4,24,0.00
2013-12-1,55.0,44.0,26.1,38.6,32.9,21.3,86,66,46,29.73,29.43,9,3,13,0.00
2013-12-2,57.7,51.3,46.4,50.7,46.2,38.4,94,83,63,29.44,29.24,10,3,13,0.00
2013-12-3,59.0,54.6,50.7,55.3,52.0,49.9,97,91,82,29.31,29.23,11,4,14,0.00
2013-12-4,75.4,67.0,57.6,61.6,58.6,55.3,92,75,55,29.37,29.26,23,12,30,0.00
2013-12-5,72.9,57.0,37.9,65.6,53.0,36.4,95,87,76,29.57,29.36,14,8,27,0.69
2013-12-6,38.1,35.2,30.9,36.6,32.2,27.5,95,89,86,29.81,29.51,16,8,23,0.63
2013-12-7,32.4,30.9,28.9,28.7,26.6,25.6,89,84,78,29.96,29.78,20,10,21,0.04
2013-12-8,47.8,38.7,32.2,46.5,36.9,28.5,96,93,86,29.77,29.53,11,4,17,0.27
2013-12-9,44.2,35.6,31.3,43.2,32.3,27.6,97,88,81,29.70,29.55,11,6,15,0.12
2013-12-10,42.3,30.6,22.1,29.4,24.5,19.1,89,78,56,29.87,29.57,12,4,16,0.04
2013-12-11,49.6,31.3,17.4,33.2,21.4,12.8,88,69,33,29.99,29.84,12,3,17,0.01
2013-12-12,45.7,28.4,17.4,18.0,12.4,3.8,79,55,23,30.08,29.87,10,2,11,0.00
2013-12-13,46.2,32.3,15.3,30.6,19.2,9.4,81,60,27,29.87,29.52,7,1,11,0.00
2013-12-14,51.4,43.7,35.6,48.4,39.5,26.0,94,86,48,29.52,29.27,18,8,24,0.48
2013-12-15,35.6,33.0,28.6,31.9,26.8,24.4,87,78,68,29.71,29.49,14,7,19,0.00
2013-12-16,57.4,40.0,25.7,35.7,28.8,21.6,88,66,41,29.92,29.57,15,5,17,9.73
2013-12-17,60.1,43.2,26.6,36.9,29.3,18.8,86,60,40,30.06,29.85,20,5,26,0.00
2013-12-18,54.0,35.0,19.0,30.4,19.6,13.1,86,60,21,30.14,29.97,8,2,12,0.00
2013-12-19,63.3,50.1,27.3,40.2,30.2,17.8,76,47,35,30.01,29.83,16,8,24,0.00
2013-12-20,63.9,59.3,54.3,56.5,48.6,26.6,84,69,33,29.84,29.70,18,10,25,0.02
2013-12-21,74.5,67.5,61.3,64.3,60.6,56.2,92,79,68,29.70,29.44,36,17,49,0.92
2013-12-22,62.1,57.4,45.5,58.3,53.7,42.7,93,87,75,29.87,29.50,17,7,21,0.30
2013-12-23,45.5,35.8,27.7,42.9,27.9,18.4,93,73,57,30.21,29.87,16,9,22,0.00
2013-12-24,36.5,26.1,17.8,19.2,12.4,2.5,78,58,27,30.32,30.18,13,4,19,0.00
2013-12-25,49.5,29.5,14.7,23.1,15.7,8.6,79,60,27,30.22,30.06,9,2,11,0.00
2013-12-26,52.9,31.5,19.8,28.7,20.8,16.0,85,67,33,30.19,30.08,9,2,12,0.00
2013-12-27,59.4,33.6,18.5,30.4,19.2,12.8,85,61,21,30.24,30.12,5,1,7,0.00
2013-12-28,45.1,35.8,24.1,39.2,30.1,18.3,96,80,57,30.13,29.71,6,1,10,0.34
2013-12-29,56.8,44.6,34.9,41.7,38.1,28.7,96,79,50,29.91,29.68,14,5,19,0.26
2013-12-30,34.9,32.2,25.5,28.7,25.0,20.5,82,74,68,30.06,29.90,10,4,13,0.00
2013-12-31,47.7,29.6,19.9,27.5,21.0,16.2,86,72,41,30.24,30.04,6,1,10,0.00
2014-1-1,54.1,34.6,16.9,36.5,23.0,11.0,85,65,38,30.11,29.75,12,3,15,0.00
2014-1-2,45.9,29.5,20.3,44.1,20.4,6.0,94,69,52,30.11,29.62,23,16,35,0.32